sensor_id;sensor_type;location;lat;lon;timestamp;P1;durP1;ratioP1;P2;durP2;ratioP2
67500;SDS011;54349;52.528;19.760;2023-04-03T00:01:29;7.60;;;4.00;;
67500;SDS011;54349;52.528;19.760;2023-04-03T00:03:57;8.20;;;4.00;;
67500;SDS011;54349;52.528;19.760;2023-04-03T00:06:26;7.20;;;3.70;;
67500;SDS011;54349;52.528;19.760;2023-04-03T00:08:56;7.30;;;3.80;;
67500;SDS011;54349;52.528;19.760;2023-04-03T00:11:24;7.90;;;3.70;;
67500;SDS011;54349;52.528;19.760;2023-04-03T00:13:54;7.10;;;3.60;;
67500;SDS011;54349;52.528;19.760;2023-04-03T00:16:22;6.10;;;3.40;;
67500;SDS011;54349;52.528;19.760;2023-04-03T00:18:51;7.50;;;3.70;;
67500;SDS011;54349;52.528;19.760;2023-04-03T00:21:19;6.10;;;3.50;;
67500;SDS011;54349;52.528;19.760;2023-04-03T00:23:47;6.30;;;3.50;;
67500;SDS011;54349;52.528;19.760;2023-04-03T00:26:16;7.10;;;3.60;;
67500;SDS011;54349;52.528;19.760;2023-04-03T00:28:45;7.40;;;3.50;;
67500;SDS011;54349;52.528;19.760;2023-04-03T00:31:15;6.70;;;3.50;;
67500;SDS011;54349;52.528;19.760;2023-04-03T00:33:44;6.10;;;3.40;;
67500;SDS011;54349;52.528;19.760;2023-04-03T00:36:12;6.50;;;3.50;;
67500;SDS011;54349;52.528;19.760;2023-04-03T00:38:41;6.00;;;3.30;;
67500;SDS011;54349;52.528;19.760;2023-04-03T00:41:10;7.50;;;3.40;;
67500;SDS011;54349;52.528;19.760;2023-04-03T00:43:38;6.70;;;2.90;;
67500;SDS011;54349;52.528;19.760;2023-04-03T00:46:08;5.70;;;3.00;;
67500;SDS011;54349;52.528;19.760;2023-04-03T00:48:42;5.90;;;3.10;;
67500;SDS011;54349;52.528;19.760;2023-04-03T00:51:17;5.20;;;2.80;;
67500;SDS011;54349;52.528;19.760;2023-04-03T00:53:55;4.90;;;2.70;;
67500;SDS011;54349;52.528;19.760;2023-04-03T00:56:30;6.00;;;2.90;;
67500;SDS011;54349;52.528;19.760;2023-04-03T00:59:11;6.90;;;3.20;;
67500;SDS011;54349;52.528;19.760;2023-04-03T01:01:44;5.10;;;2.40;;
67500;SDS011;54349;52.528;19.760;2023-04-03T01:04:49;5.20;;;2.60;;
67500;SDS011;54349;52.528;19.760;2023-04-03T01:07:22;5.90;;;2.90;;
67500;SDS011;54349;52.528;19.760;2023-04-03T01:10:00;5.30;;;2.60;;
67500;SDS011;54349;52.528;19.760;2023-04-03T01:12:36;4.70;;;2.60;;
67500;SDS011;54349;52.528;19.760;2023-04-03T01:15:10;5.00;;;2.50;;
67500;SDS011;54349;52.528;19.760;2023-04-03T01:18:02;6.40;;;2.70;;
67500;SDS011;54349;52.528;19.760;2023-04-03T01:26:09;5.30;;;2.80;;
67500;SDS011;54349;52.528;19.760;2023-04-03T01:28:39;5.30;;;2.70;;
67500;SDS011;54349;52.528;19.760;2023-04-03T01:33:47;4.90;;;2.50;;
67500;SDS011;54349;52.528;19.760;2023-04-03T01:36:25;4.50;;;2.70;;
67500;SDS011;54349;52.528;19.760;2023-04-03T01:38:59;5.10;;;2.40;;
67500;SDS011;54349;52.528;19.760;2023-04-03T01:41:29;4.90;;;2.60;;
67500;SDS011;54349;52.528;19.760;2023-04-03T01:44:08;4.20;;;2.30;;
67500;SDS011;54349;52.528;19.760;2023-04-03T01:46:36;4.20;;;2.30;;
67500;SDS011;54349;52.528;19.760;2023-04-03T01:49:05;4.60;;;2.20;;
67500;SDS011;54349;52.528;19.760;2023-04-03T01:51:34;4.60;;;2.30;;
67500;SDS011;54349;52.528;19.760;2023-04-03T01:54:05;4.20;;;2.30;;
67500;SDS011;54349;52.528;19.760;2023-04-03T01:56:33;3.80;;;2.00;;
67500;SDS011;54349;52.528;19.760;2023-04-03T01:59:02;4.10;;;2.20;;
67500;SDS011;54349;52.528;19.760;2023-04-03T02:01:36;4.00;;;2.10;;
67500;SDS011;54349;52.528;19.760;2023-04-03T02:04:04;5.40;;;2.20;;
67500;SDS011;54349;52.528;19.760;2023-04-03T02:06:33;4.40;;;2.40;;
67500;SDS011;54349;52.528;19.760;2023-04-03T02:09:03;4.50;;;2.20;;
67500;SDS011;54349;52.528;19.760;2023-04-03T02:11:32;4.40;;;2.20;;
67500;SDS011;54349;52.528;19.760;2023-04-03T02:14:01;4.70;;;2.10;;
67500;SDS011;54349;52.528;19.760;2023-04-03T02:16:29;4.70;;;2.10;;
67500;SDS011;54349;52.528;19.760;2023-04-03T02:18:58;3.90;;;2.00;;
67500;SDS011;54349;52.528;19.760;2023-04-03T02:21:26;5.60;;;2.40;;
67500;SDS011;54349;52.528;19.760;2023-04-03T02:23:55;4.50;;;2.20;;
67500;SDS011;54349;52.528;19.760;2023-04-03T02:26:24;3.40;;;1.70;;
67500;SDS011;54349;52.528;19.760;2023-04-03T02:28:53;3.20;;;1.90;;
67500;SDS011;54349;52.528;19.760;2023-04-03T02:31:22;4.60;;;2.00;;
67500;SDS011;54349;52.528;19.760;2023-04-03T02:33:52;3.40;;;1.90;;
67500;SDS011;54349;52.528;19.760;2023-04-03T02:36:20;4.10;;;2.20;;
67500;SDS011;54349;52.528;19.760;2023-04-03T02:38:54;3.80;;;2.00;;
67500;SDS011;54349;52.528;19.760;2023-04-03T02:41:24;4.00;;;2.10;;
67500;SDS011;54349;52.528;19.760;2023-04-03T02:44:03;4.20;;;2.10;;
67500;SDS011;54349;52.528;19.760;2023-04-03T02:46:33;3.30;;;1.80;;
67500;SDS011;54349;52.528;19.760;2023-04-03T02:49:03;2.90;;;1.90;;
67500;SDS011;54349;52.528;19.760;2023-04-03T02:51:32;3.60;;;2.00;;
67500;SDS011;54349;52.528;19.760;2023-04-03T02:54:00;4.00;;;2.00;;
67500;SDS011;54349;52.528;19.760;2023-04-03T02:56:30;5.00;;;2.20;;
67500;SDS011;54349;52.528;19.760;2023-04-03T02:58:59;4.90;;;2.20;;
67500;SDS011;54349;52.528;19.760;2023-04-03T03:01:28;4.00;;;2.00;;
67500;SDS011;54349;52.528;19.760;2023-04-03T03:04:00;3.20;;;1.90;;
67500;SDS011;54349;52.528;19.760;2023-04-03T03:06:29;5.10;;;2.10;;
67500;SDS011;54349;52.528;19.760;2023-04-03T03:08:58;3.50;;;2.00;;
67500;SDS011;54349;52.528;19.760;2023-04-03T03:11:29;3.10;;;1.90;;
67500;SDS011;54349;52.528;19.760;2023-04-03T03:13:58;4.00;;;2.00;;
67500;SDS011;54349;52.528;19.760;2023-04-03T03:16:26;4.20;;;1.90;;
67500;SDS011;54349;52.528;19.760;2023-04-03T03:18:57;3.00;;;1.70;;
67500;SDS011;54349;52.528;19.760;2023-04-03T03:21:27;3.20;;;1.70;;
67500;SDS011;54349;52.528;19.760;2023-04-03T03:23:55;3.40;;;1.90;;
67500;SDS011;54349;52.528;19.760;2023-04-03T03:26:24;2.80;;;1.70;;
67500;SDS011;54349;52.528;19.760;2023-04-03T03:28:52;3.10;;;1.70;;
67500;SDS011;54349;52.528;19.760;2023-04-03T03:31:21;2.40;;;1.80;;
67500;SDS011;54349;52.528;19.760;2023-04-03T03:33:49;3.80;;;1.80;;
67500;SDS011;54349;52.528;19.760;2023-04-03T03:36:18;3.50;;;1.80;;
67500;SDS011;54349;52.528;19.760;2023-04-03T03:38:46;3.30;;;1.70;;
67500;SDS011;54349;52.528;19.760;2023-04-03T03:41:14;3.50;;;1.90;;
67500;SDS011;54349;52.528;19.760;2023-04-03T03:43:43;4.00;;;2.10;;
67500;SDS011;54349;52.528;19.760;2023-04-03T03:46:12;2.90;;;1.80;;
67500;SDS011;54349;52.528;19.760;2023-04-03T03:48:40;3.50;;;1.80;;
67500;SDS011;54349;52.528;19.760;2023-04-03T03:51:09;2.80;;;1.70;;
67500;SDS011;54349;52.528;19.760;2023-04-03T03:53:39;2.40;;;1.60;;
67500;SDS011;54349;52.528;19.760;2023-04-03T03:56:11;3.00;;;1.70;;
67500;SDS011;54349;52.528;19.760;2023-04-03T03:58:41;3.10;;;1.70;;
67500;SDS011;54349;52.528;19.760;2023-04-03T04:01:09;2.30;;;1.50;;
67500;SDS011;54349;52.528;19.760;2023-04-03T04:03:42;3.20;;;2.00;;
67500;SDS011;54349;52.528;19.760;2023-04-03T04:06:11;2.40;;;1.60;;
67500;SDS011;54349;52.528;19.760;2023-04-03T04:08:40;3.90;;;1.90;;
67500;SDS011;54349;52.528;19.760;2023-04-03T04:11:10;4.20;;;1.70;;
67500;SDS011;54349;52.528;19.760;2023-04-03T04:13:42;2.70;;;1.70;;
67500;SDS011;54349;52.528;19.760;2023-04-03T04:16:11;2.70;;;1.70;;
67500;SDS011;54349;52.528;19.760;2023-04-03T04:18:41;2.90;;;1.80;;
67500;SDS011;54349;52.528;19.760;2023-04-03T04:21:13;3.90;;;1.60;;
67500;SDS011;54349;52.528;19.760;2023-04-03T04:23:42;3.90;;;1.60;;
67500;SDS011;54349;52.528;19.760;2023-04-03T04:26:11;2.60;;;1.80;;
67500;SDS011;54349;52.528;19.760;2023-04-03T04:28:40;3.00;;;1.60;;
67500;SDS011;54349;52.528;19.760;2023-04-03T04:31:09;2.90;;;1.80;;
67500;SDS011;54349;52.528;19.760;2023-04-03T04:33:39;2.90;;;1.70;;
67500;SDS011;54349;52.528;19.760;2023-04-03T04:36:11;3.00;;;1.80;;
67500;SDS011;54349;52.528;19.760;2023-04-03T04:38:40;3.10;;;1.90;;
67500;SDS011;54349;52.528;19.760;2023-04-03T04:41:11;2.90;;;1.70;;
67500;SDS011;54349;52.528;19.760;2023-04-03T04:43:41;3.00;;;1.60;;
67500;SDS011;54349;52.528;19.760;2023-04-03T04:46:11;2.70;;;1.80;;
67500;SDS011;54349;52.528;19.760;2023-04-03T04:48:46;3.50;;;1.80;;
67500;SDS011;54349;52.528;19.760;2023-04-03T04:51:16;2.60;;;1.60;;
67500;SDS011;54349;52.528;19.760;2023-04-03T04:53:45;3.30;;;1.80;;
67500;SDS011;54349;52.528;19.760;2023-04-03T04:56:14;3.00;;;1.70;;
67500;SDS011;54349;52.528;19.760;2023-04-03T04:58:43;3.50;;;1.90;;
67500;SDS011;54349;52.528;19.760;2023-04-03T05:01:11;3.50;;;1.80;;
67500;SDS011;54349;52.528;19.760;2023-04-03T05:03:47;3.00;;;1.70;;
67500;SDS011;54349;52.528;19.760;2023-04-03T05:06:16;3.20;;;1.90;;
67500;SDS011;54349;52.528;19.760;2023-04-03T05:08:45;3.50;;;1.80;;
67500;SDS011;54349;52.528;19.760;2023-04-03T05:11:14;4.90;;;2.10;;
67500;SDS011;54349;52.528;19.760;2023-04-03T05:13:43;3.50;;;1.70;;
67500;SDS011;54349;52.528;19.760;2023-04-03T05:16:12;4.50;;;2.00;;
67500;SDS011;54349;52.528;19.760;2023-04-03T05:18:41;3.20;;;1.80;;
67500;SDS011;54349;52.528;19.760;2023-04-03T05:21:14;5.80;;;2.00;;
67500;SDS011;54349;52.528;19.760;2023-04-03T05:23:43;4.50;;;1.90;;
67500;SDS011;54349;52.528;19.760;2023-04-03T05:26:14;3.90;;;1.80;;
67500;SDS011;54349;52.528;19.760;2023-04-03T05:28:44;4.20;;;2.00;;
67500;SDS011;54349;52.528;19.760;2023-04-03T05:31:13;3.70;;;1.90;;
67500;SDS011;54349;52.528;19.760;2023-04-03T05:33:43;4.60;;;2.00;;
67500;SDS011;54349;52.528;19.760;2023-04-03T05:36:20;4.90;;;2.00;;
67500;SDS011;54349;52.528;19.760;2023-04-03T05:38:55;4.30;;;2.00;;
67500;SDS011;54349;52.528;19.760;2023-04-03T05:41:28;4.40;;;2.00;;
67500;SDS011;54349;52.528;19.760;2023-04-03T05:43:56;5.80;;;2.50;;
67500;SDS011;54349;52.528;19.760;2023-04-03T05:46:25;5.60;;;2.40;;
67500;SDS011;54349;52.528;19.760;2023-04-03T05:48:57;5.20;;;2.20;;
67500;SDS011;54349;52.528;19.760;2023-04-03T05:51:34;5.10;;;2.20;;
67500;SDS011;54349;52.528;19.760;2023-04-03T05:54:26;4.40;;;2.20;;
67500;SDS011;54349;52.528;19.760;2023-04-03T05:57:03;5.50;;;2.20;;
67500;SDS011;54349;52.528;19.760;2023-04-03T05:59:32;7.20;;;2.30;;
67500;SDS011;54349;52.528;19.760;2023-04-03T06:02:04;4.20;;;2.20;;
67500;SDS011;54349;52.528;19.760;2023-04-03T06:04:34;5.50;;;2.40;;
67500;SDS011;54349;52.528;19.760;2023-04-03T06:07:03;5.60;;;2.60;;
67500;SDS011;54349;52.528;19.760;2023-04-03T06:09:34;5.70;;;2.40;;
67500;SDS011;54349;52.528;19.760;2023-04-03T06:12:06;4.60;;;2.10;;
67500;SDS011;54349;52.528;19.760;2023-04-03T06:14:39;5.70;;;2.30;;
67500;SDS011;54349;52.528;19.760;2023-04-03T06:17:09;4.90;;;2.00;;
67500;SDS011;54349;52.528;19.760;2023-04-03T06:19:41;6.50;;;2.60;;
67500;SDS011;54349;52.528;19.760;2023-04-03T06:22:11;9.10;;;3.30;;
67500;SDS011;54349;52.528;19.760;2023-04-03T06:24:43;9.20;;;3.50;;
67500;SDS011;54349;52.528;19.760;2023-04-03T06:27:14;11.70;;;3.90;;
67500;SDS011;54349;52.528;19.760;2023-04-03T06:29:45;13.00;;;3.80;;
67500;SDS011;54349;52.528;19.760;2023-04-03T06:32:16;11.10;;;3.70;;
67500;SDS011;54349;52.528;19.760;2023-04-03T06:34:47;8.90;;;3.60;;
67500;SDS011;54349;52.528;19.760;2023-04-03T06:37:22;9.80;;;3.90;;
67500;SDS011;54349;52.528;19.760;2023-04-03T06:39:55;7.40;;;3.20;;
67500;SDS011;54349;52.528;19.760;2023-04-03T06:42:28;10.00;;;3.50;;
67500;SDS011;54349;52.528;19.760;2023-04-03T06:45:16;8.60;;;3.30;;
67500;SDS011;54349;52.528;19.760;2023-04-03T06:47:45;8.80;;;3.80;;
67500;SDS011;54349;52.528;19.760;2023-04-03T06:50:16;10.10;;;3.90;;
67500;SDS011;54349;52.528;19.760;2023-04-03T06:52:45;11.80;;;3.80;;
67500;SDS011;54349;52.528;19.760;2023-04-03T06:55:13;9.40;;;3.10;;
67500;SDS011;54349;52.528;19.760;2023-04-03T06:57:42;8.60;;;3.50;;
67500;SDS011;54349;52.528;19.760;2023-04-03T07:00:12;8.60;;;3.30;;
67500;SDS011;54349;52.528;19.760;2023-04-03T07:02:42;6.60;;;3.00;;
67500;SDS011;54349;52.528;19.760;2023-04-03T07:05:11;8.00;;;3.40;;
67500;SDS011;54349;52.528;19.760;2023-04-03T07:07:43;7.80;;;3.50;;
67500;SDS011;54349;52.528;19.760;2023-04-03T07:10:12;7.90;;;3.40;;
67500;SDS011;54349;52.528;19.760;2023-04-03T07:12:41;7.50;;;3.30;;
67500;SDS011;54349;52.528;19.760;2023-04-03T07:15:13;8.00;;;3.30;;
67500;SDS011;54349;52.528;19.760;2023-04-03T07:17:42;7.80;;;2.80;;
67500;SDS011;54349;52.528;19.760;2023-04-03T07:20:11;7.80;;;3.20;;
67500;SDS011;54349;52.528;19.760;2023-04-03T07:22:40;6.30;;;3.10;;
67500;SDS011;54349;52.528;19.760;2023-04-03T07:25:10;7.30;;;3.00;;
67500;SDS011;54349;52.528;19.760;2023-04-03T07:27:38;8.80;;;3.20;;
67500;SDS011;54349;52.528;19.760;2023-04-03T07:30:08;10.00;;;3.70;;
67500;SDS011;54349;52.528;19.760;2023-04-03T07:32:37;10.50;;;3.80;;
67500;SDS011;54349;52.528;19.760;2023-04-03T07:35:06;8.80;;;3.60;;
67500;SDS011;54349;52.528;19.760;2023-04-03T07:37:35;11.00;;;3.90;;
67500;SDS011;54349;52.528;19.760;2023-04-03T07:40:05;8.80;;;3.30;;
67500;SDS011;54349;52.528;19.760;2023-04-03T07:42:35;9.60;;;3.90;;
67500;SDS011;54349;52.528;19.760;2023-04-03T07:45:08;8.50;;;3.50;;
67500;SDS011;54349;52.528;19.760;2023-04-03T07:47:37;11.10;;;4.20;;
67500;SDS011;54349;52.528;19.760;2023-04-03T07:50:07;8.30;;;3.90;;
67500;SDS011;54349;52.528;19.760;2023-04-03T07:52:37;9.30;;;3.80;;
67500;SDS011;54349;52.528;19.760;2023-04-03T07:55:06;7.90;;;3.80;;
67500;SDS011;54349;52.528;19.760;2023-04-03T07:57:35;9.20;;;3.70;;
67500;SDS011;54349;52.528;19.760;2023-04-03T08:00:05;9.80;;;3.70;;
67500;SDS011;54349;52.528;19.760;2023-04-03T08:02:45;8.90;;;3.90;;
67500;SDS011;54349;52.528;19.760;2023-04-03T08:05:21;9.00;;;3.50;;
67500;SDS011;54349;52.528;19.760;2023-04-03T08:07:49;8.70;;;3.60;;
67500;SDS011;54349;52.528;19.760;2023-04-03T08:10:18;10.00;;;4.00;;
67500;SDS011;54349;52.528;19.760;2023-04-03T08:12:47;8.40;;;3.40;;
67500;SDS011;54349;52.528;19.760;2023-04-03T08:15:16;8.10;;;3.90;;
67500;SDS011;54349;52.528;19.760;2023-04-03T08:17:45;7.80;;;3.20;;
67500;SDS011;54349;52.528;19.760;2023-04-03T08:20:14;8.00;;;3.20;;
67500;SDS011;54349;52.528;19.760;2023-04-03T08:22:47;8.10;;;3.50;;
67500;SDS011;54349;52.528;19.760;2023-04-03T08:25:16;8.40;;;3.20;;
67500;SDS011;54349;52.528;19.760;2023-04-03T08:27:48;8.80;;;3.50;;
67500;SDS011;54349;52.528;19.760;2023-04-03T08:30:19;7.90;;;3.50;;
67500;SDS011;54349;52.528;19.760;2023-04-03T08:32:47;8.70;;;3.80;;
67500;SDS011;54349;52.528;19.760;2023-04-03T08:35:16;7.80;;;3.30;;
67500;SDS011;54349;52.528;19.760;2023-04-03T08:37:44;8.80;;;3.50;;
67500;SDS011;54349;52.528;19.760;2023-04-03T08:40:15;7.10;;;3.20;;
67500;SDS011;54349;52.528;19.760;2023-04-03T08:48:23;7.10;;;3.20;;
67500;SDS011;54349;52.528;19.760;2023-04-03T08:51:00;7.20;;;3.20;;
67500;SDS011;54349;52.528;19.760;2023-04-03T08:53:43;8.30;;;3.50;;
67500;SDS011;54349;52.528;19.760;2023-04-03T08:56:21;7.70;;;3.00;;
67500;SDS011;54349;52.528;19.760;2023-04-03T08:58:59;7.40;;;3.10;;
67500;SDS011;54349;52.528;19.760;2023-04-03T09:01:35;6.70;;;3.30;;
67500;SDS011;54349;52.528;19.760;2023-04-03T09:04:15;8.90;;;3.40;;
67500;SDS011;54349;52.528;19.760;2023-04-03T09:06:53;8.90;;;3.10;;
67500;SDS011;54349;52.528;19.760;2023-04-03T09:09:33;6.90;;;3.00;;
67500;SDS011;54349;52.528;19.760;2023-04-03T09:12:21;9.10;;;3.10;;
67500;SDS011;54349;52.528;19.760;2023-04-03T09:29:28;6.20;;;2.70;;
67500;SDS011;54349;52.528;19.760;2023-04-03T09:32:02;7.20;;;3.00;;
67500;SDS011;54349;52.528;19.760;2023-04-03T09:34:47;6.00;;;2.70;;
67500;SDS011;54349;52.528;19.760;2023-04-03T09:37:42;6.80;;;3.10;;
67500;SDS011;54349;52.528;19.760;2023-04-03T09:43:00;8.10;;;3.10;;
67500;SDS011;54349;52.528;19.760;2023-04-03T09:45:50;6.40;;;2.70;;
67500;SDS011;54349;52.528;19.760;2023-04-03T09:48:25;6.30;;;2.80;;
67500;SDS011;54349;52.528;19.760;2023-04-03T09:50:57;5.40;;;2.70;;
67500;SDS011;54349;52.528;19.760;2023-04-03T09:53:44;6.50;;;2.70;;
67500;SDS011;54349;52.528;19.760;2023-04-03T09:58:46;46.80;;;18.90;;
67500;SDS011;54349;52.528;19.760;2023-04-03T10:04:14;23.70;;;9.10;;
67500;SDS011;54349;52.528;19.760;2023-04-03T10:06:46;42.00;;;14.70;;
67500;SDS011;54349;52.528;19.760;2023-04-03T10:09:25;23.10;;;8.00;;
67500;SDS011;54349;52.528;19.760;2023-04-03T10:14:34;12.00;;;4.70;;
67500;SDS011;54349;52.528;19.760;2023-04-03T10:17:59;12.60;;;4.30;;
67500;SDS011;54349;52.528;19.760;2023-04-03T10:20:49;11.30;;;4.50;;
67500;SDS011;54349;52.528;19.760;2023-04-03T10:26:22;8.60;;;3.90;;
67500;SDS011;54349;52.528;19.760;2023-04-03T10:29:39;8.40;;;3.40;;
67500;SDS011;54349;52.528;19.760;2023-04-03T10:54:00;7.30;;;3.30;;
67500;SDS011;54349;52.528;19.760;2023-04-03T10:57:04;8.60;;;3.30;;
67500;SDS011;54349;52.528;19.760;2023-04-03T10:59:49;8.80;;;3.60;;
67500;SDS011;54349;52.528;19.760;2023-04-03T11:02:33;6.30;;;2.90;;
67500;SDS011;54349;52.528;19.760;2023-04-03T11:05:45;6.80;;;3.10;;
67500;SDS011;54349;52.528;19.760;2023-04-03T11:08:54;8.10;;;3.50;;
67500;SDS011;54349;52.528;19.760;2023-04-03T11:11:32;6.40;;;2.70;;
67500;SDS011;54349;52.528;19.760;2023-04-03T11:14:26;6.20;;;3.00;;
67500;SDS011;54349;52.528;19.760;2023-04-03T11:22:32;6.90;;;3.30;;
67500;SDS011;54349;52.528;19.760;2023-04-03T11:33:32;6.50;;;3.00;;
67500;SDS011;54349;52.528;19.760;2023-04-03T11:41:42;6.00;;;2.70;;
67500;SDS011;54349;52.528;19.760;2023-04-03T11:44:35;7.20;;;3.10;;
67500;SDS011;54349;52.528;19.760;2023-04-03T11:47:08;6.80;;;3.20;;
67500;SDS011;54349;52.528;19.760;2023-04-03T11:50:00;5.30;;;2.40;;
67500;SDS011;54349;52.528;19.760;2023-04-03T12:11:29;7.90;;;3.40;;
67500;SDS011;54349;52.528;19.760;2023-04-03T12:19:30;10.20;;;4.60;;
67500;SDS011;54349;52.528;19.760;2023-04-03T12:22:17;8.90;;;4.20;;
67500;SDS011;54349;52.528;19.760;2023-04-03T12:24:52;9.60;;;4.20;;
67500;SDS011;54349;52.528;19.760;2023-04-03T12:27:28;9.50;;;5.00;;
67500;SDS011;54349;52.528;19.760;2023-04-03T12:35:43;10.20;;;4.80;;
67500;SDS011;54349;52.528;19.760;2023-04-03T12:38:57;9.00;;;4.90;;
67500;SDS011;54349;52.528;19.760;2023-04-03T12:45:01;8.20;;;4.00;;
67500;SDS011;54349;52.528;19.760;2023-04-03T12:47:38;8.80;;;4.40;;
67500;SDS011;54349;52.528;19.760;2023-04-03T12:50:24;8.40;;;3.90;;
67500;SDS011;54349;52.528;19.760;2023-04-03T12:53:06;8.60;;;3.90;;
67500;SDS011;54349;52.528;19.760;2023-04-03T12:55:40;7.40;;;3.40;;
67500;SDS011;54349;52.528;19.760;2023-04-03T12:58:16;8.80;;;4.20;;
67500;SDS011;54349;52.528;19.760;2023-04-03T13:01:09;9.00;;;3.80;;
67500;SDS011;54349;52.528;19.760;2023-04-03T13:03:43;7.20;;;3.60;;
67500;SDS011;54349;52.528;19.760;2023-04-03T13:11:53;7.60;;;3.70;;
67500;SDS011;54349;52.528;19.760;2023-04-03T13:14:29;9.80;;;4.30;;
67500;SDS011;54349;52.528;19.760;2023-04-03T13:17:03;9.80;;;4.70;;
67500;SDS011;54349;52.528;19.760;2023-04-03T13:19:39;11.70;;;5.50;;
67500;SDS011;54349;52.528;19.760;2023-04-03T13:24:51;12.20;;;6.10;;
67500;SDS011;54349;52.528;19.760;2023-04-03T13:27:21;16.50;;;7.40;;
67500;SDS011;54349;52.528;19.760;2023-04-03T13:29:52;18.50;;;8.40;;
67500;SDS011;54349;52.528;19.760;2023-04-03T13:32:24;20.60;;;9.00;;
67500;SDS011;54349;52.528;19.760;2023-04-03T13:34:57;20.30;;;9.50;;
67500;SDS011;54349;52.528;19.760;2023-04-03T13:37:57;21.50;;;9.90;;
67500;SDS011;54349;52.528;19.760;2023-04-03T13:40:28;25.90;;;9.80;;
67500;SDS011;54349;52.528;19.760;2023-04-03T13:43:20;22.50;;;9.60;;
67500;SDS011;54349;52.528;19.760;2023-04-03T13:48:49;20.60;;;9.30;;
67500;SDS011;54349;52.528;19.760;2023-04-03T13:51:23;22.20;;;9.10;;
67500;SDS011;54349;52.528;19.760;2023-04-03T13:53:57;21.60;;;9.80;;
67500;SDS011;54349;52.528;19.760;2023-04-03T13:56:35;23.50;;;9.60;;
67500;SDS011;54349;52.528;19.760;2023-04-03T13:59:29;21.70;;;9.30;;
67500;SDS011;54349;52.528;19.760;2023-04-03T14:07:04;24.30;;;10.10;;
67500;SDS011;54349;52.528;19.760;2023-04-03T14:09:35;20.40;;;9.50;;
67500;SDS011;54349;52.528;19.760;2023-04-03T14:12:13;22.40;;;9.40;;
67500;SDS011;54349;52.528;19.760;2023-04-03T14:15:02;18.70;;;9.20;;
67500;SDS011;54349;52.528;19.760;2023-04-03T14:17:34;20.80;;;9.50;;
67500;SDS011;54349;52.528;19.760;2023-04-03T14:20:06;21.30;;;9.60;;
67500;SDS011;54349;52.528;19.760;2023-04-03T14:22:35;23.50;;;10.00;;
67500;SDS011;54349;52.528;19.760;2023-04-03T14:25:04;22.90;;;11.00;;
67500;SDS011;54349;52.528;19.760;2023-04-03T14:27:39;22.20;;;10.60;;
67500;SDS011;54349;52.528;19.760;2023-04-03T14:30:27;23.00;;;10.30;;
67500;SDS011;54349;52.528;19.760;2023-04-03T14:33:01;21.40;;;9.90;;
67500;SDS011;54349;52.528;19.760;2023-04-03T14:35:30;23.60;;;10.20;;
67500;SDS011;54349;52.528;19.760;2023-04-03T14:37:59;20.30;;;9.70;;
67500;SDS011;54349;52.528;19.760;2023-04-03T14:40:28;20.60;;;8.70;;
67500;SDS011;54349;52.528;19.760;2023-04-03T14:42:56;20.70;;;9.70;;
67500;SDS011;54349;52.528;19.760;2023-04-03T14:45:25;21.20;;;9.60;;
67500;SDS011;54349;52.528;19.760;2023-04-03T14:47:55;21.70;;;10.20;;
67500;SDS011;54349;52.528;19.760;2023-04-03T14:50:26;20.50;;;8.90;;
67500;SDS011;54349;52.528;19.760;2023-04-03T14:52:58;22.90;;;9.40;;
67500;SDS011;54349;52.528;19.760;2023-04-03T14:55:27;20.50;;;9.40;;
67500;SDS011;54349;52.528;19.760;2023-04-03T14:57:56;19.30;;;8.90;;
67500;SDS011;54349;52.528;19.760;2023-04-03T15:00:25;17.30;;;8.60;;
67500;SDS011;54349;52.528;19.760;2023-04-03T15:02:54;20.50;;;8.50;;
67500;SDS011;54349;52.528;19.760;2023-04-03T15:05:26;18.90;;;8.70;;
67500;SDS011;54349;52.528;19.760;2023-04-03T15:07:55;17.10;;;8.40;;
67500;SDS011;54349;52.528;19.760;2023-04-03T15:10:28;15.60;;;7.50;;
67500;SDS011;54349;52.528;19.760;2023-04-03T15:12:58;17.30;;;8.20;;
67500;SDS011;54349;52.528;19.760;2023-04-03T15:15:29;16.40;;;8.70;;
67500;SDS011;54349;52.528;19.760;2023-04-03T15:17:58;17.30;;;8.10;;
67500;SDS011;54349;52.528;19.760;2023-04-03T15:20:28;18.30;;;8.40;;
67500;SDS011;54349;52.528;19.760;2023-04-03T15:22:59;16.10;;;7.90;;
67500;SDS011;54349;52.528;19.760;2023-04-03T15:25:29;18.50;;;7.80;;
67500;SDS011;54349;52.528;19.760;2023-04-03T15:27:59;15.80;;;8.00;;
67500;SDS011;54349;52.528;19.760;2023-04-03T15:30:28;17.10;;;7.20;;
67500;SDS011;54349;52.528;19.760;2023-04-03T15:32:56;14.10;;;6.90;;
67500;SDS011;54349;52.528;19.760;2023-04-03T15:35:25;15.40;;;7.10;;
67500;SDS011;54349;52.528;19.760;2023-04-03T15:37:54;11.10;;;6.20;;
67500;SDS011;54349;52.528;19.760;2023-04-03T15:40:22;13.60;;;7.10;;
67500;SDS011;54349;52.528;19.760;2023-04-03T15:42:52;13.30;;;7.00;;
67500;SDS011;54349;52.528;19.760;2023-04-03T15:45:21;12.60;;;6.60;;
67500;SDS011;54349;52.528;19.760;2023-04-03T15:47:50;13.30;;;6.80;;
67500;SDS011;54349;52.528;19.760;2023-04-03T15:50:20;13.20;;;6.60;;
67500;SDS011;54349;52.528;19.760;2023-04-03T15:52:53;15.10;;;7.10;;
67500;SDS011;54349;52.528;19.760;2023-04-03T15:55:26;15.50;;;6.70;;
67500;SDS011;54349;52.528;19.760;2023-04-03T15:57:57;13.70;;;6.40;;
67500;SDS011;54349;52.528;19.760;2023-04-03T16:00:27;16.80;;;7.60;;
67500;SDS011;54349;52.528;19.760;2023-04-03T16:02:59;22.70;;;10.30;;
67500;SDS011;54349;52.528;19.760;2023-04-03T16:05:35;21.50;;;10.80;;
67500;SDS011;54349;52.528;19.760;2023-04-03T16:08:06;25.00;;;12.10;;
67500;SDS011;54349;52.528;19.760;2023-04-03T16:10:36;23.90;;;12.10;;
67500;SDS011;54349;52.528;19.760;2023-04-03T16:13:05;25.90;;;12.20;;
67500;SDS011;54349;52.528;19.760;2023-04-03T16:15:34;25.60;;;11.80;;
67500;SDS011;54349;52.528;19.760;2023-04-03T16:18:04;29.60;;;11.70;;
67500;SDS011;54349;52.528;19.760;2023-04-03T16:20:34;23.70;;;11.70;;
67500;SDS011;54349;52.528;19.760;2023-04-03T16:23:03;27.10;;;11.80;;
67500;SDS011;54349;52.528;19.760;2023-04-03T16:25:32;25.50;;;11.80;;
67500;SDS011;54349;52.528;19.760;2023-04-03T16:28:00;25.80;;;12.30;;
67500;SDS011;54349;52.528;19.760;2023-04-03T16:30:28;25.80;;;11.80;;
67500;SDS011;54349;52.528;19.760;2023-04-03T16:32:57;24.30;;;11.70;;
67500;SDS011;54349;52.528;19.760;2023-04-03T16:35:27;25.40;;;11.20;;
67500;SDS011;54349;52.528;19.760;2023-04-03T16:37:55;25.50;;;12.00;;
67500;SDS011;54349;52.528;19.760;2023-04-03T16:40:25;25.20;;;11.10;;
67500;SDS011;54349;52.528;19.760;2023-04-03T16:42:53;23.60;;;11.00;;
67500;SDS011;54349;52.528;19.760;2023-04-03T16:45:21;23.00;;;11.50;;
67500;SDS011;54349;52.528;19.760;2023-04-03T16:47:50;22.40;;;10.60;;
67500;SDS011;54349;52.528;19.760;2023-04-03T16:50:19;23.10;;;10.80;;
67500;SDS011;54349;52.528;19.760;2023-04-03T16:52:47;22.80;;;11.40;;
67500;SDS011;54349;52.528;19.760;2023-04-03T16:55:16;23.10;;;11.00;;
67500;SDS011;54349;52.528;19.760;2023-04-03T16:57:45;23.10;;;10.60;;
67500;SDS011;54349;52.528;19.760;2023-04-03T17:00:17;24.10;;;11.00;;
67500;SDS011;54349;52.528;19.760;2023-04-03T17:02:46;22.10;;;10.40;;
67500;SDS011;54349;52.528;19.760;2023-04-03T17:05:16;19.90;;;10.00;;
67500;SDS011;54349;52.528;19.760;2023-04-03T17:07:45;18.50;;;9.40;;
67500;SDS011;54349;52.528;19.760;2023-04-03T17:10:14;18.50;;;9.10;;
67500;SDS011;54349;52.528;19.760;2023-04-03T17:12:43;19.30;;;10.20;;
67500;SDS011;54349;52.528;19.760;2023-04-03T17:15:12;21.40;;;9.80;;